Time;durP1;ratioP1;P1;durP2;ratioP2;P2;SDS_P1;SDS_P2;PMS_P1;PMS_P2;Temp;Humidity;BMP_temperature;BMP_pressure;BME280_temperature;BME280_humidity;BME280_pressure;Samples;Min_cycle;Max_cycle;Signal;HPM_P1;HPM_P2
2021/01/31 00:00:17;;;;;;;47.47;25.97;;;6.40;76.40;;;;;;5064942;28;20075;-84
2021/01/31 00:02:44;;;;;;;42.57;24.90;;;6.40;76.40;;;;;;5072029;28;20044;-83
2021/01/31 00:05:12;;;;;;;42.30;25.77;;;6.40;76.30;;;;;;5076342;28;20033;-83
2021/01/31 00:07:39;;;;;;;40.53;24.67;;;6.40;76.40;;;;;;5068757;28;20027;-83
2021/01/31 00:10:06;;;;;;;43.73;24.67;;;6.50;76.40;;;;;;5075257;28;20028;-82
2021/01/31 00:12:32;;;;;;;35.17;22.23;;;6.50;76.20;;;;;;5067023;28;20021;-82
2021/01/31 00:14:58;;;;;;;36.93;24.67;;;6.50;76.10;;;;;;5066690;28;20115;-83
2021/01/31 00:17:23;;;;;;;61.37;26.17;;;6.50;76.10;;;;;;5074877;28;20391;-82
2021/01/31 00:19:49;;;;;;;35.73;22.23;;;6.50;76.10;;;;;;5075974;28;20085;-82
2021/01/31 00:22:15;;;;;;;36.30;22.80;;;6.40;76.30;;;;;;5071078;28;20033;-82
2021/01/31 00:24:41;;;;;;;39.53;23.33;;;6.50;76.40;;;;;;5058916;28;20573;-82
2021/01/31 00:27:07;;;;;;;38.23;23.00;;;6.50;76.30;;;;;;5070929;28;20089;-82
2021/01/31 00:29:34;;;;;;;26.57;17.57;;;6.50;76.10;;;;;;5059265;28;20024;-82
2021/01/31 00:31:59;;;;;;;26.37;15.87;;;6.40;76.00;;;;;;5057799;28;20028;-82
2021/01/31 00:34:25;;;;;;;26.23;14.33;;;6.40;76.10;;;;;;5071065;28;20911;-82
2021/01/31 00:36:52;;;;;;;24.83;14.37;;;6.40;76.10;;;;;;5073946;28;20534;-82
2021/01/31 00:39:18;;;;;;;24.03;14.67;;;6.40;76.10;;;;;;5059450;28;20056;-82
2021/01/31 00:41:44;;;;;;;26.37;16.43;;;6.40;76.20;;;;;;5074023;28;20489;-82
2021/01/31 00:44:11;;;;;;;32.10;17.47;;;6.40;76.00;;;;;;5073221;28;20036;-83
2021/01/31 00:46:40;;;;;;;30.93;18.07;;;6.40;75.80;;;;;;5070810;28;20040;-82
2021/01/31 00:49:07;;;;;;;20.77;13.07;;;6.40;75.90;;;;;;5072206;28;20032;-82
2021/01/31 00:51:33;;;;;;;21.50;11.67;;;6.40;75.90;;;;;;5073065;28;20498;-82
2021/01/31 00:53:59;;;;;;;18.90;12.57;;;6.40;75.80;;;;;;5059375;28;20024;-82
2021/01/31 00:56:25;;;;;;;19.80;12.33;;;6.40;75.90;;;;;;5068783;28;20029;-82
2021/01/31 00:58:51;;;;;;;18.40;12.33;;;6.40;75.90;;;;;;5073086;28;20028;-82
2021/01/31 01:01:18;;;;;;;17.80;11.50;;;6.40;75.90;;;;;;5073551;28;20553;-82
2021/01/31 01:03:44;;;;;;;19.47;11.90;;;6.40;76.00;;;;;;5070989;28;20028;-82
2021/01/31 01:06:10;;;;;;;19.90;13.10;;;6.40;75.90;;;;;;5075104;28;20100;-82
2021/01/31 01:08:36;;;;;;;18.43;12.13;;;6.40;75.90;;;;;;5073901;28;20052;-82
2021/01/31 01:11:03;;;;;;;18.93;11.37;;;6.30;75.80;;;;;;5062406;28;20079;-83
2021/01/31 01:13:28;;;;;;;18.83;12.07;;;6.30;75.90;;;;;;5065583;28;20029;-82
2021/01/31 01:15:54;;;;;;;18.50;11.13;;;6.30;75.90;;;;;;5073673;28;20029;-82
2021/01/31 01:18:21;;;;;;;16.97;10.63;;;6.30;76.00;;;;;;5067948;28;20082;-82
2021/01/31 01:20:47;;;;;;;17.97;11.03;;;6.30;76.10;;;;;;5059662;28;20032;-82
2021/01/31 01:23:12;;;;;;;17.67;10.17;;;6.30;76.10;;;;;;5066549;28;20029;-82
2021/01/31 01:25:38;;;;;;;19.40;12.53;;;6.30;76.10;;;;;;5057913;28;20144;-82
2021/01/31 01:28:04;;;;;;;19.03;11.90;;;6.30;76.00;;;;;;5062541;28;20391;-82
2021/01/31 01:30:31;;;;;;;21.13;11.80;;;6.30;75.90;;;;;;5072838;28;20132;-82
2021/01/31 01:32:58;;;;;;;16.13;10.80;;;6.30;76.10;;;;;;5060656;28;20499;-82
2021/01/31 01:35:25;;;;;;;14.90;8.93;;;6.30;76.10;;;;;;5065078;28;20037;-82
2021/01/31 01:37:51;;;;;;;14.17;9.00;;;6.30;76.10;;;;;;5058525;28;20050;-82
2021/01/31 01:40:33;;;;;;;11.47;7.97;;;6.20;76.10;;;;;;5053771;28;20408;-82
2021/01/31 01:42:59;;;;;;;13.30;9.07;;;6.20;76.10;;;;;;5069150;28;20032;-82
2021/01/31 01:45:26;;;;;;;13.97;9.30;;;6.30;76.10;;;;;;5071886;28;20072;-82
2021/01/31 01:47:57;;;;;;;14.43;9.77;;;6.20;76.10;;;;;;5065840;28;20111;-82
2021/01/31 01:50:45;;;;;;;14.97;9.00;;;6.20;76.20;;;;;;5061796;28;20032;-82
2021/01/31 01:53:11;;;;;;;13.17;8.77;;;6.20;76.20;;;;;;5063032;28;20032;-83
2021/01/31 01:55:46;;;;;;;13.57;8.70;;;6.30;76.20;;;;;;5059358;28;20094;-82
2021/01/31 01:58:17;;;;;;;12.03;8.27;;;6.30;76.20;;;;;;5085827;28;20020;-82
2021/01/31 02:00:45;;;;;;;16.20;9.60;;;6.30;76.10;;;;;;5067814;28;20177;-82
2021/01/31 02:03:19;;;;;;;14.70;8.67;;;6.30;76.10;;;;;;5070573;28;20032;-82
2021/01/31 02:05:59;;;;;;;13.23;8.10;;;6.30;76.10;;;;;;5054290;28;20127;-82
2021/01/31 02:08:25;;;;;;;26.97;15.47;;;6.30;76.10;;;;;;5054600;28;20029;-82
2021/01/31 02:10:51;;;;;;;19.40;11.37;;;6.30;76.20;;;;;;5069810;28;20048;-82
2021/01/31 02:13:17;;;;;;;14.30;9.50;;;6.30;76.30;;;;;;5062541;28;20415;-82
2021/01/31 02:15:44;;;;;;;23.87;14.80;;;6.30;76.10;;;;;;5066703;28;20147;-82
2021/01/31 02:18:24;;;;;;;21.80;14.20;;;6.30;76.10;;;;;;5061620;28;20035;-82
2021/01/31 02:21:16;;;;;;;21.37;13.63;;;6.30;76.50;;;;;;5060781;28;20032;-82
2021/01/31 02:24:09;;;;;;;21.27;13.07;;;6.40;76.50;;;;;;5055606;28;20039;-82
2021/01/31 02:26:56;;;;;;;22.13;15.80;;;6.50;76.40;;;;;;5072512;28;20086;-82
2021/01/31 02:29:31;;;;;;;25.50;16.93;;;6.60;76.30;;;;;;5069309;28;20063;-82
2021/01/31 02:32:12;;;;;;;24.93;15.90;;;6.70;76.00;;;;;;5073695;28;20075;-82
2021/01/31 02:34:54;;;;;;;27.73;18.50;;;6.70;75.70;;;;;;5061612;28;20043;-82
2021/01/31 02:37:23;;;;;;;29.27;17.47;;;6.60;75.90;;;;;;5072255;28;20024;-82
2021/01/31 02:40:05;;;;;;;23.67;11.43;;;6.60;75.90;;;;;;5057639;28;20124;-82
2021/01/31 02:42:37;;;;;;;20.97;11.90;;;6.50;75.80;;;;;;5070712;28;20468;-82
2021/01/31 02:45:11;;;;;;;18.83;12.43;;;6.60;76.00;;;;;;5058004;28;20454;-82
2021/01/31 02:47:43;;;;;;;16.30;10.63;;;6.60;75.80;;;;;;5072641;28;20047;-82
2021/01/31 02:50:18;;;;;;;15.35;10.43;;;6.60;75.80;;;;;;5067762;28;20017;-83
2021/01/31 02:52:55;;;;;;;18.90;10.47;;;6.50;75.70;;;;;;5064888;28;20444;-82
2021/01/31 02:55:26;;;;;;;13.47;9.27;;;6.50;75.80;;;;;;5070812;28;20118;-82
2021/01/31 02:58:00;;;;;;;17.23;10.60;;;6.50;75.90;;;;;;5071520;28;20031;-82
2021/01/31 03:00:37;;;;;;;20.00;9.90;;;6.50;76.10;;;;;;5065446;28;20029;-82
2021/01/31 03:03:19;;;;;;;17.37;10.20;;;6.60;75.90;;;;;;5057498;28;20024;-83
2021/01/31 03:05:50;;;;;;;19.30;10.02;;;6.60;75.40;;;;;;5057859;28;20412;-83
2021/01/31 03:08:37;;;;;;;16.73;9.97;;;6.50;75.50;;;;;;5053503;28;20075;-82
2021/01/31 03:11:06;;;;;;;17.23;10.50;;;6.50;76.10;;;;;;5052415;28;20029;-83
2021/01/31 03:13:50;;;;;;;18.60;11.07;;;6.60;76.10;;;;;;5067175;28;20029;-82
2021/01/31 03:16:33;;;;;;;21.13;12.50;;;6.50;75.70;;;;;;5053508;28;20071;-82
2021/01/31 03:19:08;;;;;;;;;;;6.50;75.80;;;;;;5058561;28;20024;-82
2021/01/31 03:21:36;;;;;;;19.60;13.67;;;6.50;75.90;;;;;;5084780;28;19966;-82
2021/01/31 03:24:28;;;;;;;21.70;13.60;;;6.50;76.20;;;;;;5069790;28;20029;-82
2021/01/31 03:27:03;;;;;;;26.07;18.53;;;6.40;75.70;;;;;;5069997;28;20025;-82
2021/01/31 03:29:29;;;;;;;26.87;17.53;;;6.40;75.80;;;;;;5058944;28;20052;-82
2021/01/31 03:32:03;;;;;;;24.63;17.70;;;6.40;76.10;;;;;;5060204;28;20033;-82
2021/01/31 03:34:37;;;;;;;25.20;17.97;;;6.40;75.80;;;;;;5062024;28;20025;-82
2021/01/31 03:37:05;;;;;;;25.30;17.60;;;6.40;75.90;;;;;;5064545;28;20031;-82
2021/01/31 03:39:33;;;;;;;22.83;17.10;;;6.50;76.00;;;;;;5072813;28;20044;-82
2021/01/31 03:41:59;;;;;;;21.33;15.43;;;6.50;76.10;;;;;;5057470;28;20032;-82
2021/01/31 03:44:26;;;;;;;28.50;18.50;;;6.50;76.00;;;;;;5060191;28;20043;-82
2021/01/31 03:47:06;;;;;;;24.93;16.50;;;6.50;75.70;;;;;;5071101;28;20028;-82
2021/01/31 03:49:52;;;;;;;23.77;16.63;;;6.50;75.90;;;;;;5072945;28;20037;-82
2021/01/31 03:52:18;;;;;;;21.67;15.63;;;6.50;76.10;;;;;;5072970;28;20024;-82
2021/01/31 03:54:44;;;;;;;26.10;17.70;;;6.50;76.10;;;;;;5062264;28;20119;-82
2021/01/31 03:57:39;;;;;;;28.63;19.23;;;6.50;76.10;;;;;;5073235;28;20805;-82
2021/01/31 04:00:14;;;;;;;19.73;14.10;;;6.40;76.10;;;;;;5071868;28;20437;-82
2021/01/31 04:03:08;;;;;;;18.10;12.20;;;6.40;76.10;;;;;;5058533;28;20515;-82
2021/01/31 04:05:37;;;;;;;19.90;13.20;;;6.40;76.30;;;;;;5072278;28;20051;-82
2021/01/31 04:08:08;;;;;;;19.27;12.80;;;6.40;76.10;;;;;;5070407;28;20033;-82
2021/01/31 04:10:34;;;;;;;16.77;12.07;;;6.40;76.10;;;;;;5073763;28;20035;-82
2021/01/31 04:13:01;;;;;;;20.80;12.43;;;6.40;76.20;;;;;;5073644;28;20349;-82
2021/01/31 04:15:30;;;;;;;18.87;12.17;;;6.40;76.30;;;;;;5070629;28;20832;-82
2021/01/31 04:17:55;;;;;;;20.70;13.30;;;6.40;76.10;;;;;;5058558;28;20550;-82
2021/01/31 04:20:21;;;;;;;20.67;13.00;;;6.40;76.10;;;;;;5069457;28;20025;-82
2021/01/31 04:22:47;;;;;;;23.17;13.77;;;6.40;76.00;;;;;;5073733;28;20544;-83
2021/01/31 04:25:13;;;;;;;22.87;16.23;;;6.40;76.10;;;;;;5071264;28;20033;-83
2021/01/31 04:27:40;;;;;;;24.97;17.37;;;6.40;76.10;;;;;;5070929;28;20031;-83
2021/01/31 04:30:07;;;;;;;31.00;22.27;;;6.40;76.10;;;;;;5067632;28;20107;-83
2021/01/31 04:32:34;;;;;;;25.43;16.57;;;6.30;76.10;;;;;;5073695;28;20128;-83
2021/01/31 04:34:59;;;;;;;22.40;15.57;;;6.30;76.10;;;;;;5067007;28;20036;-83
2021/01/31 04:37:25;;;;;;;22.00;15.17;;;6.30;76.30;;;;;;5069031;28;20119;-83
2021/01/31 04:39:50;;;;;;;24.17;16.03;;;6.30;76.30;;;;;;5068378;28;20032;-83
2021/01/31 04:42:18;;;;;;;24.43;16.70;;;6.30;76.40;;;;;;5063140;28;20090;-83
2021/01/31 04:44:44;;;;;;;23.23;15.93;;;6.30;76.40;;;;;;5072372;28;20033;-83
2021/01/31 04:47:31;;;;;;;24.77;16.90;;;6.20;76.40;;;;;;5064333;28;20021;-83
2021/01/31 04:50:18;;;;;;;23.10;16.00;;;6.20;76.40;;;;;;5060023;28;20036;-83
2021/01/31 04:53:02;;;;;;;25.13;17.23;;;6.20;76.50;;;;;;5069002;28;20017;-83
2021/01/31 04:55:46;;;;;;;26.67;18.00;;;6.30;76.50;;;;;;5074292;28;20032;-83
2021/01/31 04:58:14;;;;;;;25.57;18.80;;;6.30;76.40;;;;;;5071015;28;20024;-83
2021/01/31 05:01:08;;;;;;;24.70;16.07;;;6.20;76.40;;;;;;5071341;28;20067;-83
2021/01/31 05:04:05;;;;;;;23.27;14.73;;;6.30;76.40;;;;;;5061647;28;20127;-83
2021/01/31 05:06:38;;;;;;;24.83;15.33;;;6.20;76.60;;;;;;5060193;28;20549;-83
2021/01/31 05:09:05;;;;;;;25.70;14.77;;;6.20;76.40;;;;;;5067149;28;20027;-83
2021/01/31 05:11:43;;;;;;;23.97;15.30;;;6.20;76.50;;;;;;5075758;28;20435;-83
2021/01/31 05:14:11;;;;;;;23.27;14.30;;;6.20;76.60;;;;;;5068767;28;20020;-83
2021/01/31 05:16:37;;;;;;;24.87;15.43;;;6.20;76.50;;;;;;5063490;28;20032;-83
2021/01/31 05:19:07;;;;;;;26.47;16.53;;;6.20;76.50;;;;;;5057679;28;20459;-83
2021/01/31 05:21:34;;;;;;;27.17;16.00;;;6.20;76.70;;;;;;5067342;28;20372;-83
2021/01/31 05:24:11;;;;;;;25.87;17.27;;;6.20;76.70;;;;;;5069750;28;20043;-83
2021/01/31 05:26:49;;;;;;;24.60;16.80;;;6.20;76.60;;;;;;5067932;28;20032;-82
2021/01/31 05:29:22;;;;;;;26.17;15.33;;;6.20;76.70;;;;;;5063772;28;20025;-82
2021/01/31 05:32:06;;;;;;;27.83;17.13;;;6.20;76.60;;;;;;5065616;28;20037;-82
2021/01/31 05:34:33;;;;;;;22.70;14.87;;;6.20;76.60;;;;;;5055926;28;20055;-82
2021/01/31 05:37:02;;;;;;;24.07;16.00;;;6.20;76.60;;;;;;5061979;28;20040;-82
2021/01/31 05:39:41;;;;;;;21.00;13.20;;;6.20;76.60;;;;;;5057278;28;20025;-82
2021/01/31 05:42:18;;;;;;;17.67;12.23;;;6.20;76.60;;;;;;5062489;28;20039;-82
2021/01/31 05:44:55;;;;;;;23.57;15.60;;;6.20;76.50;;;;;;5064107;28;20448;-82
2021/01/31 05:47:24;;;;;;;25.33;13.60;;;6.20;76.40;;;;;;5069467;28;20041;-82
2021/01/31 05:49:53;;;;;;;23.63;14.90;;;6.20;76.40;;;;;;5069297;28;20058;-81
2021/01/31 05:52:18;;;;;;;27.63;16.60;;;6.20;76.50;;;;;;5072882;28;20020;-82
2021/01/31 05:54:45;;;;;;;26.17;18.67;;;6.20;76.60;;;;;;5085394;28;20039;-82
2021/01/31 05:57:30;;;;;;;24.10;18.23;;;6.20;76.70;;;;;;5070467;28;20017;-82
2021/01/31 05:59:58;;;;;;;27.90;19.63;;;6.20;76.80;;;;;;5067509;28;20033;-82
2021/01/31 06:02:30;;;;;;;30.47;21.33;;;6.20;76.60;;;;;;5071819;28;20044;-82
2021/01/31 06:05:20;;;;;;;28.65;21.08;;;6.20;76.70;;;;;;5073639;28;20028;-82
2021/01/31 06:07:56;;;;;;;25.67;20.27;;;6.20;76.80;;;;;;5065912;28;20087;-82
2021/01/31 06:10:23;;;;;;;28.57;21.17;;;6.20;76.70;;;;;;5064023;28;20028;-82
2021/01/31 06:12:50;;;;;;;28.50;20.03;;;6.20;76.80;;;;;;5068148;28;20031;-82
2021/01/31 06:15:29;;;;;;;29.83;20.40;;;6.20;76.70;;;;;;5072119;28;20055;-82
2021/01/31 06:18:11;;;;;;;32.50;21.00;;;6.20;76.80;;;;;;5072784;28;20111;-82
2021/01/31 06:20:40;;;;;;;23.52;19.67;;;6.20;76.80;;;;;;5074818;28;20043;-82
2021/01/31 06:23:16;;;;;;;25.17;19.13;;;6.20;76.80;;;;;;5093801;28;20028;-82
2021/01/31 06:25:42;;;;;;;23.80;18.40;;;6.20;76.70;;;;;;5075421;28;20020;-82
2021/01/31 06:28:22;;;;;;;25.80;18.33;;;6.20;76.80;;;;;;5068588;28;20016;-82
2021/01/31 06:31:26;;;;;;;25.37;17.93;;;6.20;76.70;;;;;;5066155;28;20021;-82
2021/01/31 06:33:52;;;;;;;27.43;19.10;;;6.20;76.80;;;;;;5056256;28;20102;-82
2021/01/31 06:36:47;;;;;;;27.57;19.87;;;6.20;76.70;;;;;;5072666;28;20392;-82
2021/01/31 06:39:35;;;;;;;25.90;18.87;;;6.20;76.70;;;;;;5062841;28;20029;-82
2021/01/31 06:42:08;;;;;;;26.00;19.13;;;6.30;76.80;;;;;;5066224;28;20025;-82
2021/01/31 06:44:42;;;;;;;27.93;18.87;;;6.20;76.70;;;;;;5071848;28;20116;-82
2021/01/31 06:47:20;;;;;;;28.37;21.23;;;6.20;76.70;;;;;;5065679;28;20100;-82
2021/01/31 06:50:18;;;;;;;32.53;22.97;;;6.30;76.80;;;;;;5064993;28;20102;-82
2021/01/31 06:53:22;;;;;;;31.67;21.43;;;6.30;76.70;;;;;;5072089;28;20425;-82
2021/01/31 06:55:56;;;;;;;32.03;23.52;;;6.30;76.70;;;;;;5065470;28;20111;-82
2021/01/31 06:58:37;;;;;;;33.97;23.40;;;6.30;76.70;;;;;;5064043;28;20119;-82
2021/01/31 07:01:50;;;;;;;31.10;22.20;;;6.20;76.60;;;;;;5064127;28;20020;-82
2021/01/31 07:04:39;;;;;;;28.47;20.07;;;6.20;76.70;;;;;;5066451;28;20115;-82
2021/01/31 07:07:34;;;;;;;28.10;19.50;;;6.30;76.80;;;;;;5059909;28;20422;-82
2021/01/31 07:10:00;;;;;;;25.00;19.83;;;6.30;77.20;;;;;;5054569;28;20028;-82
2021/01/31 07:12:30;;;;;;;24.37;19.10;;;6.30;76.70;;;;;;5052751;28;20119;-82
2021/01/31 07:15:10;;;;;;;26.00;19.33;;;6.20;76.60;;;;;;5062027;28;20563;-83
2021/01/31 07:17:48;;;;;;;25.40;19.43;;;6.20;76.70;;;;;;5069286;28;20029;-82
2021/01/31 07:20:21;;;;;;;23.13;17.83;;;6.20;76.70;;;;;;5051563;28;20028;-82
2021/01/31 07:22:50;;;;;;;25.55;19.42;;;6.20;76.70;;;;;;5060379;28;20108;-82
2021/01/31 07:25:38;;;;;;;25.83;18.97;;;6.20;76.70;;;;;;5070813;28;20112;-83
2021/01/31 07:28:13;;;;;;;32.87;21.57;;;6.20;76.80;;;;;;5053528;28;20395;-83
2021/01/31 07:31:03;;;;;;;31.57;21.97;;;6.20;76.60;;;;;;5064674;28;20027;-83
2021/01/31 07:33:39;;;;;;;36.30;23.83;;;6.20;76.80;;;;;;5083797;28;20068;-83
2021/01/31 07:36:05;;;;;;;29.63;22.43;;;6.20;76.80;;;;;;5069266;28;20016;-83
2021/01/31 07:38:50;;;;;;;28.40;21.30;;;6.20;76.80;;;;;;5052054;28;20392;-83
2021/01/31 07:41:17;;;;;;;30.60;20.20;;;6.20;76.80;;;;;;5066259;28;21111;-83
2021/01/31 07:43:45;;;;;;;41.40;26.77;;;6.20;76.80;;;;;;5070158;28;20387;-82
2021/01/31 07:46:13;;;;;;;42.93;28.87;;;6.30;77.00;;;;;;5056627;28;20079;-82
2021/01/31 07:48:45;;;;;;;33.50;22.77;;;6.30;76.80;;;;;;5070460;28;20059;-82
2021/01/31 07:51:20;;;;;;;26.97;19.07;;;6.30;76.80;;;;;;5062968;28;20028;-82
2021/01/31 07:53:46;;;;;;;25.00;17.93;;;6.30;77.00;;;;;;5054180;28;20013;-82
2021/01/31 07:56:26;;;;;;;35.17;20.70;;;6.30;76.60;;;;;;5060815;28;20478;-82
2021/01/31 07:58:54;;;;;;;28.80;21.13;;;6.30;76.70;;;;;;5062390;28;20028;-82
2021/01/31 08:02:01;;;;;;;31.33;21.77;;;6.30;76.70;;;;;;5065179;28;20017;-82
2021/01/31 08:04:33;;;;;;;28.63;20.03;;;6.30;76.80;;;;;;5065079;28;20124;-82
2021/01/31 08:07:01;;;;;;;25.50;17.70;;;6.30;76.80;;;;;;5069937;28;20016;-82
2021/01/31 08:09:27;;;;;;;31.70;18.43;;;6.30;76.70;;;;;;5057673;28;20405;-82
2021/01/31 08:12:12;;;;;;;23.40;17.80;;;6.30;76.70;;;;;;5067087;28;20028;-82
2021/01/31 08:15:00;;;;;;;28.57;19.37;;;6.30;77.00;;;;;;5067300;28;20029;-82
2021/01/31 08:17:42;;;;;;;29.13;21.33;;;6.40;76.80;;;;;;5061290;28;21014;-82
2021/01/31 08:20:17;;;;;;;32.97;22.00;;;6.40;76.80;;;;;;5064281;28;20054;-82
2021/01/31 08:22:43;;;;;;;32.97;20.03;;;6.40;76.80;;;;;;5076129;28;20032;-82
2021/01/31 08:25:10;;;;;;;25.80;18.63;;;6.50;76.80;;;;;;5068442;28;20110;-82
2021/01/31 08:27:42;;;;;;;22.13;17.00;;;6.50;76.80;;;;;;5068021;28;20035;-82
2021/01/31 08:30:27;;;;;;;20.40;15.97;;;6.50;76.70;;;;;;5064083;28;20543;-82
2021/01/31 08:33:02;;;;;;;21.07;16.33;;;6.50;76.50;;;;;;5085463;28;20098;-82
2021/01/31 08:35:46;;;;;;;20.73;15.00;;;6.50;76.60;;;;;;5069779;28;20443;-83
2021/01/31 08:38:16;;;;;;;21.63;15.37;;;6.60;76.50;;;;;;5068595;28;20063;-83
2021/01/31 08:41:04;;;;;;;23.60;17.13;;;6.60;76.30;;;;;;5061119;28;20040;-82
2021/01/31 08:43:37;;;;;;;22.97;16.03;;;6.60;77.00;;;;;;5063853;28;20134;-82
2021/01/31 08:46:16;;;;;;;22.43;15.93;;;6.60;76.30;;;;;;5072770;28;20036;-82
2021/01/31 08:48:49;;;;;;;18.60;14.97;;;6.60;76.30;;;;;;5066763;28;20024;-82
2021/01/31 08:51:22;;;;;;;20.70;16.37;;;6.60;76.30;;;;;;5070363;28;20024;-82
2021/01/31 08:54:08;;;;;;;21.65;16.33;;;6.60;76.10;;;;;;5068231;28;20028;-82
2021/01/31 08:56:40;;;;;;;22.03;15.50;;;6.60;75.90;;;;;;5062884;28;20029;-83
2021/01/31 08:59:19;;;;;;;20.23;15.82;;;6.60;75.90;;;;;;5074498;28;20021;-83
2021/01/31 09:02:07;;;;;;;26.37;15.20;;;6.60;75.90;;;;;;5055447;28;20071;-83
2021/01/31 09:04:33;;;;;;;21.20;15.07;;;6.60;75.80;;;;;;5077322;28;20044;-83
2021/01/31 09:07:01;;;;;;;19.67;15.50;;;6.60;75.90;;;;;;5064887;28;20120;-83
2021/01/31 09:09:36;;;;;;;20.30;14.93;;;6.70;75.80;;;;;;5072377;28;20032;-83
2021/01/31 09:12:10;;;;;;;20.23;14.97;;;6.70;75.70;;;;;;5074174;28;20025;-83
2021/01/31 09:14:38;;;;;;;22.67;15.63;;;6.70;75.50;;;;;;5067394;28;20487;-83
2021/01/31 09:17:07;;;;;;;20.97;15.27;;;6.70;75.60;;;;;;5066174;28;20033;-83
2021/01/31 09:19:32;;;;;;;19.63;15.17;;;6.70;75.60;;;;;;5070884;28;20457;-83
2021/01/31 09:22:03;;;;;;;20.53;16.17;;;6.80;75.50;;;;;;5065029;28;20030;-83
2021/01/31 09:24:37;;;;;;;21.40;15.77;;;6.80;75.40;;;;;;5067892;28;20062;-83
2021/01/31 09:27:06;;;;;;;19.03;14.53;;;6.80;75.20;;;;;;5068717;28;20029;-83
2021/01/31 09:29:34;;;;;;;17.80;14.07;;;6.80;75.20;;;;;;5066601;28;20064;-83
2021/01/31 09:32:15;;;;;;;20.07;13.30;;;6.80;75.20;;;;;;5061729;28;20057;-83
2021/01/31 09:34:41;;;;;;;19.37;13.90;;;6.90;75.30;;;;;;5066970;28;20024;-83
2021/01/31 09:37:19;;;;;;;21.57;13.43;;;7.00;75.20;;;;;;5072552;28;20115;-83
2021/01/31 09:39:45;;;;;;;17.40;13.43;;;7.00;75.10;;;;;;5069702;28;20036;-83
2021/01/31 09:42:11;;;;;;;17.30;13.10;;;7.10;75.10;;;;;;5073564;28;20028;-83
2021/01/31 09:44:38;;;;;;;16.50;11.93;;;7.20;75.00;;;;;;5061547;28;20041;-83
2021/01/31 09:47:05;;;;;;;17.23;12.97;;;7.20;74.80;;;;;;5065937;28;20021;-83
2021/01/31 09:49:31;;;;;;;17.20;12.67;;;7.20;74.80;;;;;;5072506;28;20388;-83
2021/01/31 09:52:09;;;;;;;16.17;12.73;;;7.20;74.60;;;;;;5078089;28;20032;-83
2021/01/31 09:54:36;;;;;;;16.70;12.67;;;7.20;74.80;;;;;;5064344;28;20032;-83
2021/01/31 09:57:05;;;;;;;18.43;13.20;;;7.20;74.50;;;;;;5065601;28;20176;-83
2021/01/31 09:59:32;;;;;;;17.23;13.57;;;7.20;74.50;;;;;;5058745;28;20024;-83
2021/01/31 10:02:11;;;;;;;15.33;11.60;;;7.20;74.50;;;;;;5062660;28;20052;-82
2021/01/31 10:04:40;;;;;;;16.47;10.93;;;7.20;74.30;;;;;;5064188;28;20071;-82
2021/01/31 10:07:14;;;;;;;15.93;11.57;;;7.30;74.30;;;;;;5063330;28;20707;-83
2021/01/31 10:09:50;;;;;;;19.70;12.47;;;7.30;74.30;;;;;;5065922;28;20029;-83
2021/01/31 10:12:25;;;;;;;16.37;12.03;;;7.30;74.00;;;;;;5068569;28;20035;-83
2021/01/31 10:15:04;;;;;;;17.17;12.90;;;7.30;73.90;;;;;;5067056;28;21148;-83
2021/01/31 10:17:29;;;;;;;16.27;12.60;;;7.30;73.90;;;;;;5067934;28;20036;-83
2021/01/31 10:20:34;;;;;;;19.90;13.13;;;7.30;73.90;;;;;;5067736;28;20115;-83
2021/01/31 10:23:06;;;;;;;31.23;20.67;;;7.30;73.80;;;;;;5071665;28;20024;-83
2021/01/31 10:25:36;;;;;;;51.33;29.97;;;7.30;73.80;;;;;;5065349;28;20029;-83
2021/01/31 10:28:04;;;;;;;45.03;26.00;;;7.30;73.80;;;;;;5065462;28;20169;-83
2021/01/31 10:30:48;;;;;;;60.70;31.83;;;7.10;73.70;;;;;;5068367;28;20098;-83
2021/01/31 10:33:35;;;;;;;63.37;38.30;;;7.10;73.90;;;;;;5072743;28;20036;-83
2021/01/31 10:36:31;;;;;;;26.90;17.73;;;7.00;73.90;;;;;;5068884;28;20074;-84
2021/01/31 10:39:20;;;;;;;24.93;16.67;;;7.00;74.00;;;;;;5065983;28;20037;-83
2021/01/31 10:41:46;;;;;;;29.30;20.37;;;7.00;73.90;;;;;;5057732;28;20045;-83
2021/01/31 10:44:29;;;;;;;28.23;18.47;;;7.00;73.90;;;;;;5066807;28;20182;-83
2021/01/31 10:46:54;;;;;;;21.40;15.65;;;7.10;73.90;;;;;;5072153;28;20444;-83
2021/01/31 10:49:21;;;;;;;31.70;18.10;;;7.20;73.60;;;;;;5068540;28;20035;-82
2021/01/31 10:51:47;;;;;;;26.93;17.87;;;7.20;73.60;;;;;;5060567;28;20063;-83
2021/01/31 10:54:15;;;;;;;34.37;21.50;;;7.20;73.50;;;;;;5059924;28;20040;-83
2021/01/31 10:56:41;;;;;;;28.10;19.30;;;7.30;73.50;;;;;;5064419;28;20021;-83
2021/01/31 10:59:07;;;;;;;28.57;18.93;;;7.30;73.50;;;;;;5062706;28;20033;-84
2021/01/31 11:01:32;;;;;;;28.53;18.93;;;7.40;73.30;;;;;;5068245;28;20357;-83
2021/01/31 11:03:58;;;;;;;26.77;16.43;;;7.40;73.30;;;;;;5065417;28;20028;-83
2021/01/31 11:06:25;;;;;;;24.50;16.40;;;7.50;73.20;;;;;;5057333;28;20087;-83
2021/01/31 11:08:51;;;;;;;23.27;16.50;;;7.50;73.10;;;;;;5063618;28;20020;-83
2021/01/31 11:11:19;;;;;;;25.63;16.17;;;7.50;73.10;;;;;;5059009;28;20119;-83
2021/01/31 11:13:45;;;;;;;24.67;16.83;;;7.50;73.20;;;;;;5071009;28;20025;-83
2021/01/31 11:16:11;;;;;;;28.43;18.07;;;7.60;73.20;;;;;;5066022;28;20647;-83
2021/01/31 11:18:36;;;;;;;31.00;20.60;;;7.60;73.10;;;;;;5056598;28;20020;-83
2021/01/31 11:21:02;;;;;;;38.37;23.17;;;7.60;73.00;;;;;;5071999;28;20062;-83
2021/01/31 11:23:28;;;;;;;34.93;23.43;;;7.50;73.00;;;;;;5065998;28;20026;-83
2021/01/31 11:25:54;;;;;;;29.33;18.57;;;7.50;73.10;;;;;;5061552;28;20158;-83
2021/01/31 11:28:20;;;;;;;25.63;16.57;;;7.60;73.30;;;;;;5052431;28;20119;-82
2021/01/31 11:30:46;;;;;;;22.10;15.57;;;7.60;73.10;;;;;;5063170;28;20017;-83
2021/01/31 11:33:12;;;;;;;20.60;15.27;;;7.60;73.20;;;;;;5063695;28;20049;-83
2021/01/31 11:35:38;;;;;;;29.47;19.23;;;7.60;73.10;;;;;;5063558;28;20089;-83
2021/01/31 11:38:09;;;;;;;28.03;19.13;;;7.60;73.00;;;;;;5062908;28;20108;-84
2021/01/31 11:40:34;;;;;;;34.57;21.00;;;7.70;72.80;;;;;;5064664;28;20072;-83
2021/01/31 11:43:00;;;;;;;32.80;22.30;;;7.70;72.70;;;;;;5066813;28;20024;-83
2021/01/31 11:45:28;;;;;;;24.93;17.70;;;7.70;72.60;;;;;;5061202;28;20798;-82
2021/01/31 11:47:54;;;;;;;29.40;20.23;;;7.70;72.60;;;;;;5065010;28;20017;-82
2021/01/31 11:50:20;;;;;;;29.70;20.70;;;7.80;72.50;;;;;;5054489;28;20021;-82
2021/01/31 11:52:45;;;;;;;31.80;21.37;;;7.80;72.30;;;;;;5061135;28;20059;-82
2021/01/31 11:55:12;;;;;;;25.77;18.50;;;7.80;72.40;;;;;;5054837;28;20059;-82
2021/01/31 11:57:38;;;;;;;27.03;18.20;;;7.80;72.50;;;;;;5074043;28;20025;-82
2021/01/31 12:00:12;;;;;;;24.53;16.90;;;7.80;72.30;;;;;;5070213;28;20024;-82
2021/01/31 12:02:38;;;;;;;21.43;16.77;;;7.70;72.20;;;;;;5068203;28;20025;-82
2021/01/31 12:05:05;;;;;;;21.50;16.60;;;7.70;72.20;;;;;;5064758;28;20122;-82
2021/01/31 12:07:31;;;;;;;21.57;16.13;;;7.70;72.10;;;;;;5064820;28;20033;-83
2021/01/31 12:09:56;;;;;;;19.50;15.70;;;7.80;72.20;;;;;;5065421;28;20035;-83
2021/01/31 12:12:22;;;;;;;19.37;15.27;;;7.80;72.00;;;;;;5071277;28;20021;-83
2021/01/31 12:14:48;;;;;;;22.07;15.43;;;7.80;72.00;;;;;;5070931;28;20029;-83
2021/01/31 12:17:13;;;;;;;21.17;15.00;;;7.70;71.90;;;;;;5065179;28;20029;-83
2021/01/31 12:19:39;;;;;;;21.13;15.57;;;7.80;72.00;;;;;;5066718;28;20020;-82
2021/01/31 12:22:05;;;;;;;19.63;15.07;;;7.80;71.90;;;;;;5074417;28;20024;-83
2021/01/31 12:24:30;;;;;;;24.43;16.73;;;7.80;71.80;;;;;;5065289;28;20494;-83
2021/01/31 12:26:56;;;;;;;23.60;16.30;;;7.80;71.70;;;;;;5066125;28;20021;-83
2021/01/31 12:29:22;;;;;;;22.30;15.37;;;7.80;71.70;;;;;;5066857;28;20527;-83
2021/01/31 12:31:48;;;;;;;18.47;13.47;;;7.80;71.70;;;;;;5065697;28;20395;-83
2021/01/31 12:34:14;;;;;;;18.20;12.57;;;7.70;71.60;;;;;;5077506;28;20056;-83
2021/01/31 12:36:42;;;;;;;15.27;12.17;;;7.70;71.60;;;;;;5071211;28;20024;-82
2021/01/31 12:39:08;;;;;;;17.00;12.67;;;7.70;71.50;;;;;;5077262;28;20025;-83
2021/01/31 12:41:35;;;;;;;19.93;12.80;;;7.70;71.50;;;;;;5075354;28;20061;-82
2021/01/31 12:44:00;;;;;;;15.90;12.70;;;7.80;71.60;;;;;;5063302;28;20098;-82
2021/01/31 12:46:27;;;;;;;18.43;12.50;;;7.80;71.50;;;;;;5064648;28;20024;-82
2021/01/31 12:48:53;;;;;;;16.30;12.57;;;7.70;71.40;;;;;;5069831;28;20036;-82
2021/01/31 12:51:19;;;;;;;17.50;12.90;;;7.80;71.70;;;;;;5071887;28;20021;-82
2021/01/31 12:53:45;;;;;;;17.20;13.37;;;7.80;71.60;;;;;;5070095;28;20032;-82
2021/01/31 12:56:10;;;;;;;19.83;12.80;;;7.80;71.60;;;;;;5068486;28;20028;-83
2021/01/31 12:58:36;;;;;;;15.77;12.57;;;7.80;71.50;;;;;;5077122;28;20028;-83
2021/01/31 13:01:02;;;;;;;16.73;12.73;;;7.80;71.50;;;;;;5063671;28;20460;-83
2021/01/31 13:03:28;;;;;;;14.87;12.27;;;7.80;71.70;;;;;;5066779;28;20027;-83